sensor_id;sensor_type;location;lat;lon;timestamp;pressure;altitude;pressure_sealevel;temperature;humidity
48527;BME280;34317;51.660;5.824;2022-12-10T00:02:07;100801.72;;;3.05;59.82
48527;BME280;34317;51.660;5.824;2022-12-10T00:04:34;100803.50;;;3.03;59.65
48527;BME280;34317;51.660;5.824;2022-12-10T00:07:01;100799.19;;;3.00;59.63
48527;BME280;34317;51.660;5.824;2022-12-10T00:09:28;100796.59;;;2.99;59.66
48527;BME280;34317;51.660;5.824;2022-12-10T00:11:55;100805.34;;;2.98;59.65
48527;BME280;34317;51.660;5.824;2022-12-10T00:14:21;100803.59;;;2.97;59.81
48527;BME280;34317;51.660;5.824;2022-12-10T00:16:48;100800.13;;;2.95;59.88
48527;BME280;34317;51.660;5.824;2022-12-10T00:19:15;100797.53;;;2.93;59.57
48527;BME280;34317;51.660;5.824;2022-12-10T00:21:42;100796.69;;;2.92;59.58
48527;BME280;34317;51.660;5.824;2022-12-10T00:24:09;100803.69;;;2.90;59.65
48527;BME280;34317;51.660;5.824;2022-12-10T00:26:37;100801.09;;;2.87;59.78
48527;BME280;34317;51.660;5.824;2022-12-10T00:29:04;100802.00;;;2.86;59.80
48527;BME280;34317;51.660;5.824;2022-12-10T00:31:34;100803.75;;;2.84;59.62
48527;BME280;34317;51.660;5.824;2022-12-10T00:34:02;100805.53;;;2.82;59.75
48527;BME280;34317;51.660;5.824;2022-12-10T00:36:31;100814.28;;;2.81;59.65
48527;BME280;34317;51.660;5.824;2022-12-10T00:38:59;100810.81;;;2.79;59.86
48527;BME280;34317;51.660;5.824;2022-12-10T00:41:27;100803.84;;;2.78;59.75
48527;BME280;34317;51.660;5.824;2022-12-10T00:43:54;100809.97;;;2.77;59.76
48527;BME280;34317;51.660;5.824;2022-12-10T00:46:21;100816.06;;;2.76;59.75
48527;BME280;34317;51.660;5.824;2022-12-10T00:48:48;100808.22;;;2.76;59.89
48527;BME280;34317;51.660;5.824;2022-12-10T00:51:16;100803.91;;;2.75;59.98
48527;BME280;34317;51.660;5.824;2022-12-10T00:53:44;100796.06;;;2.75;59.86
48527;BME280;34317;51.660;5.824;2022-12-10T00:56:12;100799.53;;;2.76;59.77
48527;BME280;34317;51.660;5.824;2022-12-10T00:58:39;100802.16;;;2.74;59.79
48527;BME280;34317;51.660;5.824;2022-12-10T01:01:15;100800.38;;;2.76;59.96
48527;BME280;34317;51.660;5.824;2022-12-10T01:03:44;100802.16;;;2.74;59.93
48527;BME280;34317;51.660;5.824;2022-12-10T01:06:15;100796.94;;;2.74;59.96
48527;BME280;34317;51.660;5.824;2022-12-10T01:08:43;100803.91;;;2.75;59.83
48527;BME280;34317;51.660;5.824;2022-12-10T01:11:11;100801.31;;;2.73;59.94
48527;BME280;34317;51.660;5.824;2022-12-10T01:13:38;100809.13;;;2.75;59.89
48527;BME280;34317;51.660;5.824;2022-12-10T01:16:07;100808.25;;;2.75;59.67
48527;BME280;34317;51.660;5.824;2022-12-10T01:18:34;100800.41;;;2.73;59.87
48527;BME280;34317;51.660;5.824;2022-12-10T01:21:06;100812.63;;;2.72;59.66
48527;BME280;34317;51.660;5.824;2022-12-10T01:23:34;100814.38;;;2.72;59.89
48527;BME280;34317;51.660;5.824;2022-12-10T01:26:02;100812.66;;;2.71;59.90
48527;BME280;34317;51.660;5.824;2022-12-10T01:28:31;100819.63;;;2.70;59.76
48527;BME280;34317;51.660;5.824;2022-12-10T01:31:02;100821.41;;;2.70;59.97
48527;BME280;34317;51.660;5.824;2022-12-10T01:33:30;100819.66;;;2.69;59.71
48527;BME280;34317;51.660;5.824;2022-12-10T01:36:06;100815.31;;;2.68;59.99
48527;BME280;34317;51.660;5.824;2022-12-10T01:38:35;100814.47;;;2.66;59.64
48527;BME280;34317;51.660;5.824;2022-12-10T01:41:04;100817.97;;;2.65;59.86
48527;BME280;34317;51.660;5.824;2022-12-10T01:46:17;100825.84;;;2.62;59.91
48527;BME280;34317;51.660;5.824;2022-12-10T01:48:44;100826.75;;;2.61;59.76
48527;BME280;34317;51.660;5.824;2022-12-10T01:51:11;100825.91;;;2.59;59.90
48527;BME280;34317;51.660;5.824;2022-12-10T01:53:39;100826.75;;;2.58;59.65
48527;BME280;34317;51.660;5.824;2022-12-10T01:56:09;100830.28;;;2.57;59.78
48527;BME280;34317;51.660;5.824;2022-12-10T01:58:36;100833.75;;;2.56;59.85
48527;BME280;34317;51.660;5.824;2022-12-10T02:01:08;100829.38;;;2.56;59.80
48527;BME280;34317;51.660;5.824;2022-12-10T02:03:50;100832.06;;;2.55;59.62
48527;BME280;34317;51.660;5.824;2022-12-10T02:06:28;100832.94;;;2.50;59.65
48527;BME280;34317;51.660;5.824;2022-12-10T02:11:28;100833.94;;;2.43;59.66
48527;BME280;34317;51.660;5.824;2022-12-10T02:14:58;100837.44;;;2.39;59.75
48527;BME280;34317;51.660;5.824;2022-12-10T02:16:57;100834.88;;;2.36;59.73
48527;BME280;34317;51.660;5.824;2022-12-10T02:22:21;100826.22;;;2.31;59.80
48527;BME280;34317;51.660;5.824;2022-12-10T02:24:49;100825.38;;;2.29;59.71
48527;BME280;34317;51.660;5.824;2022-12-10T02:30:04;100814.91;;;2.29;59.83
48527;BME280;34317;51.660;5.824;2022-12-10T02:32:33;100823.63;;;2.28;60.04
48527;BME280;34317;51.660;5.824;2022-12-10T02:35:03;100823.63;;;2.28;59.85
48527;BME280;34317;51.660;5.824;2022-12-10T02:37:36;100823.63;;;2.28;59.82
48527;BME280;34317;51.660;5.824;2022-12-10T02:40:06;100825.38;;;2.26;59.64
48527;BME280;34317;51.660;5.824;2022-12-10T02:42:40;100816.72;;;2.24;59.72
48527;BME280;34317;51.660;5.824;2022-12-10T02:45:08;100835.91;;;2.23;59.85
48527;BME280;34317;51.660;5.824;2022-12-10T02:47:36;100830.66;;;2.23;59.94
48527;BME280;34317;51.660;5.824;2022-12-10T02:50:06;100827.16;;;2.24;59.88
48527;BME280;34317;51.660;5.824;2022-12-10T02:52:34;100834.13;;;2.25;60.00
48527;BME280;34317;51.660;5.824;2022-12-10T02:55:01;100833.22;;;2.26;59.79
48527;BME280;34317;51.660;5.824;2022-12-10T02:57:42;100830.63;;;2.26;59.79
48527;BME280;34317;51.660;5.824;2022-12-10T03:00:13;100835.84;;;2.26;59.78
48527;BME280;34317;51.660;5.824;2022-12-10T03:03:07;100834.13;;;2.25;59.92
48527;BME280;34317;51.660;5.824;2022-12-10T03:08:40;100834.16;;;2.22;59.85
48527;BME280;34317;51.660;5.824;2022-12-10T03:11:11;100833.31;;;2.18;59.77
48527;BME280;34317;51.660;5.824;2022-12-10T03:13:42;100835.94;;;2.17;59.77
48527;BME280;34317;51.660;5.824;2022-12-10T03:16:11;100829.91;;;2.13;59.71
48527;BME280;34317;51.660;5.824;2022-12-10T03:18:39;100836.00;;;2.13;59.76
48527;BME280;34317;51.660;5.824;2022-12-10T03:21:06;100830.75;;;2.13;60.09
48527;BME280;34317;51.660;5.824;2022-12-10T03:23:35;100822.03;;;2.14;59.98
48527;BME280;34317;51.660;5.824;2022-12-10T03:26:03;100818.56;;;2.16;59.94
48527;BME280;34317;51.660;5.824;2022-12-10T03:28:31;100812.41;;;2.18;60.04
48527;BME280;34317;51.660;5.824;2022-12-10T03:30:58;100816.75;;;2.21;59.91
48527;BME280;34317;51.660;5.824;2022-12-10T03:33:25;100821.06;;;2.23;59.97
48527;BME280;34317;51.660;5.824;2022-12-10T03:35:52;100830.63;;;2.26;60.10
48527;BME280;34317;51.660;5.824;2022-12-10T03:38:19;100816.69;;;2.27;60.10
48527;BME280;34317;51.660;5.824;2022-12-10T03:40:46;100826.22;;;2.29;59.88
48527;BME280;34317;51.660;5.824;2022-12-10T03:43:13;100821.84;;;2.33;59.91
48527;BME280;34317;51.660;5.824;2022-12-10T03:45:40;100827.06;;;2.33;59.97
48527;BME280;34317;51.660;5.824;2022-12-10T03:48:08;100827.91;;;2.35;59.98
48527;BME280;34317;51.660;5.824;2022-12-10T03:50:34;100829.66;;;2.36;59.95
48527;BME280;34317;51.660;5.824;2022-12-10T03:53:01;100833.13;;;2.37;60.00
48527;BME280;34317;51.660;5.824;2022-12-10T03:55:28;100830.50;;;2.38;59.98
48527;BME280;34317;51.660;5.824;2022-12-10T03:57:55;100837.44;;;2.39;60.07
48527;BME280;34317;51.660;5.824;2022-12-10T04:00:22;100839.19;;;2.40;59.80
48527;BME280;34317;51.660;5.824;2022-12-10T04:02:49;100838.31;;;2.41;59.86
48527;BME280;34317;51.660;5.824;2022-12-10T04:05:16;100840.94;;;2.41;59.85
48527;BME280;34317;51.660;5.824;2022-12-10T04:07:43;100843.53;;;2.41;59.97
48527;BME280;34317;51.660;5.824;2022-12-10T04:10:10;100851.38;;;2.41;59.95
48527;BME280;34317;51.660;5.824;2022-12-10T04:12:37;100850.50;;;2.41;59.91
48527;BME280;34317;51.660;5.824;2022-12-10T04:15:04;100851.38;;;2.41;59.70
48527;BME280;34317;51.660;5.824;2022-12-10T04:17:49;100856.59;;;2.41;59.73
48527;BME280;34317;51.660;5.824;2022-12-10T04:20:16;100844.41;;;2.40;59.96
48527;BME280;34317;51.660;5.824;2022-12-10T04:23:02;100846.16;;;2.40;59.81
48527;BME280;34317;51.660;5.824;2022-12-10T04:25:47;100844.44;;;2.37;59.80
48527;BME280;34317;51.660;5.824;2022-12-10T04:28:33;100847.94;;;2.36;59.78
48527;BME280;34317;51.660;5.824;2022-12-10T04:30:59;100844.44;;;2.37;60.06
48527;BME280;34317;51.660;5.824;2022-12-10T04:33:26;100840.94;;;2.38;60.02
48527;BME280;34317;51.660;5.824;2022-12-10T04:35:53;100851.41;;;2.38;59.97
48527;BME280;34317;51.660;5.824;2022-12-10T04:38:20;100860.13;;;2.37;59.91
48527;BME280;34317;51.660;5.824;2022-12-10T04:40:47;100851.44;;;2.35;59.92
48527;BME280;34317;51.660;5.824;2022-12-10T04:43:14;100854.94;;;2.36;60.07
48527;BME280;34317;51.660;5.824;2022-12-10T04:45:41;100853.19;;;2.33;59.84
48527;BME280;34317;51.660;5.824;2022-12-10T04:48:07;100849.72;;;2.34;60.04
48527;BME280;34317;51.660;5.824;2022-12-10T04:50:34;100856.66;;;2.35;59.98
48527;BME280;34317;51.660;5.824;2022-12-10T04:53:01;100861.00;;;2.38;60.13
48527;BME280;34317;51.660;5.824;2022-12-10T04:55:28;100853.09;;;2.42;60.21
48527;BME280;34317;51.660;5.824;2022-12-10T04:57:55;100860.91;;;2.44;60.02
48527;BME280;34317;51.660;5.824;2022-12-10T05:00:22;100853.06;;;2.45;59.97
48527;BME280;34317;51.660;5.824;2022-12-10T05:02:48;100858.28;;;2.45;59.95
48527;BME280;34317;51.660;5.824;2022-12-10T05:05:16;100872.22;;;2.47;59.90
48527;BME280;34317;51.660;5.824;2022-12-10T05:07:43;100858.25;;;2.48;59.85
48527;BME280;34317;51.660;5.824;2022-12-10T05:10:10;100854.78;;;2.46;59.93
48527;BME280;34317;51.660;5.824;2022-12-10T05:12:37;100860.91;;;2.44;59.74
48527;BME280;34317;51.660;5.824;2022-12-10T05:15:04;100868.78;;;2.42;59.77
48527;BME280;34317;51.660;5.824;2022-12-10T05:17:32;100868.78;;;2.39;59.88
48527;BME280;34317;51.660;5.824;2022-12-10T05:19:59;100866.22;;;2.38;59.96
48527;BME280;34317;51.660;5.824;2022-12-10T05:22:26;100863.56;;;2.39;60.19
48527;BME280;34317;51.660;5.824;2022-12-10T05:25:11;100875.75;;;2.43;60.14
48527;BME280;34317;51.660;5.824;2022-12-10T05:27:38;100870.47;;;2.46;60.21
48527;BME280;34317;51.660;5.824;2022-12-10T05:30:05;100859.13;;;2.49;60.10
48527;BME280;34317;51.660;5.824;2022-12-10T05:32:33;100865.13;;;2.56;60.22
48527;BME280;34317;51.660;5.824;2022-12-10T05:35:00;100864.22;;;2.60;60.26
48527;BME280;34317;51.660;5.824;2022-12-10T05:37:27;100866.81;;;2.63;60.27
48527;BME280;34317;51.660;5.824;2022-12-10T05:39:54;100873.72;;;2.67;60.03
48527;BME280;34317;51.660;5.824;2022-12-10T05:42:21;100870.22;;;2.68;60.16
48527;BME280;34317;51.660;5.824;2022-12-10T05:44:48;100870.22;;;2.68;59.92
48527;BME280;34317;51.660;5.824;2022-12-10T05:47:14;100871.09;;;2.67;59.94
48527;BME280;34317;51.660;5.824;2022-12-10T05:49:41;100870.25;;;2.65;59.82
48527;BME280;34317;51.660;5.824;2022-12-10T05:52:14;100876.41;;;2.62;59.92
48527;BME280;34317;51.660;5.824;2022-12-10T05:54:41;100879.88;;;2.63;60.11
48527;BME280;34317;51.660;5.824;2022-12-10T05:57:08;100868.53;;;2.64;59.86
48527;BME280;34317;51.660;5.824;2022-12-10T05:59:35;100875.50;;;2.65;60.11
48527;BME280;34317;51.660;5.824;2022-12-10T06:02:02;100878.97;;;2.65;59.83
48527;BME280;34317;51.660;5.824;2022-12-10T06:04:29;100879.00;;;2.64;59.77
48527;BME280;34317;51.660;5.824;2022-12-10T06:06:56;100878.13;;;2.63;59.93
48527;BME280;34317;51.660;5.824;2022-12-10T06:09:23;100876.38;;;2.64;59.76
48527;BME280;34317;51.660;5.824;2022-12-10T06:11:50;100878.13;;;2.63;59.98
48527;BME280;34317;51.660;5.824;2022-12-10T06:14:17;100880.72;;;2.65;59.95
48527;BME280;34317;51.660;5.824;2022-12-10T06:16:44;100878.09;;;2.68;60.25
48527;BME280;34317;51.660;5.824;2022-12-10T06:19:11;100864.09;;;2.70;60.02
48527;BME280;34317;51.660;5.824;2022-12-10T06:21:39;100864.91;;;2.74;60.12
48527;BME280;34317;51.660;5.824;2022-12-10T06:24:06;100866.59;;;2.78;60.23
48527;BME280;34317;51.660;5.824;2022-12-10T06:26:33;100868.28;;;2.82;60.18
48527;BME280;34317;51.660;5.824;2022-12-10T06:29:00;100873.50;;;2.85;60.12
48527;BME280;34317;51.660;5.824;2022-12-10T06:31:27;100873.47;;;2.88;60.23
48527;BME280;34317;51.660;5.824;2022-12-10T06:33:54;100876.03;;;2.91;60.25
48527;BME280;34317;51.660;5.824;2022-12-10T06:36:22;100878.63;;;2.95;60.08
48527;BME280;34317;51.660;5.824;2022-12-10T06:38:49;100878.59;;;2.98;60.10
48527;BME280;34317;51.660;5.824;2022-12-10T06:41:17;100882.00;;;3.01;60.15
48527;BME280;34317;51.660;5.824;2022-12-10T06:43:44;100881.13;;;3.04;60.10
48527;BME280;34317;51.660;5.824;2022-12-10T06:46:12;100888.97;;;3.04;59.92
48527;BME280;34317;51.660;5.824;2022-12-10T06:48:40;100881.94;;;3.06;60.20
48527;BME280;34317;51.660;5.824;2022-12-10T06:51:07;100880.19;;;3.08;59.88
48527;BME280;34317;51.660;5.824;2022-12-10T06:53:36;100885.38;;;3.11;59.95
48527;BME280;34317;51.660;5.824;2022-12-10T06:56:03;100887.09;;;3.12;59.85
48527;BME280;34317;51.660;5.824;2022-12-10T06:58:31;100894.06;;;3.13;59.93
48527;BME280;34317;51.660;5.824;2022-12-10T07:01:05;100894.06;;;3.13;59.97
48527;BME280;34317;51.660;5.824;2022-12-10T07:03:32;100897.56;;;3.12;59.84
48527;BME280;34317;51.660;5.824;2022-12-10T07:05:59;100894.97;;;3.10;59.82
48527;BME280;34317;51.660;5.824;2022-12-10T07:08:26;100900.19;;;3.10;59.95
48527;BME280;34317;51.660;5.824;2022-12-10T07:10:53;100902.84;;;3.09;59.96
48527;BME280;34317;51.660;5.824;2022-12-10T07:13:20;100904.56;;;3.10;59.97
48527;BME280;34317;51.660;5.824;2022-12-10T07:15:55;100906.34;;;3.08;60.00
48527;BME280;34317;51.660;5.824;2022-12-10T07:18:22;100915.06;;;3.07;60.09
48527;BME280;34317;51.660;5.824;2022-12-10T07:20:49;100915.94;;;3.07;59.81
48527;BME280;34317;51.660;5.824;2022-12-10T07:23:16;100923.81;;;3.06;59.77
48527;BME280;34317;51.660;5.824;2022-12-10T07:25:43;100925.63;;;3.01;59.96
48527;BME280;34317;51.660;5.824;2022-12-10T07:28:10;100927.38;;;2.99;59.77
48527;BME280;34317;51.660;5.824;2022-12-10T07:30:36;100934.41;;;2.97;59.79
48527;BME280;34317;51.660;5.824;2022-12-10T07:33:03;100941.41;;;2.95;60.07
48527;BME280;34317;51.660;5.824;2022-12-10T07:35:30;100936.16;;;2.95;60.25
48527;BME280;34317;51.660;5.824;2022-12-10T07:37:57;100938.78;;;2.95;59.88
48527;BME280;34317;51.660;5.824;2022-12-10T07:40:24;100940.53;;;2.94;60.08
48527;BME280;34317;51.660;5.824;2022-12-10T07:42:51;100946.63;;;2.95;60.02
48527;BME280;34317;51.660;5.824;2022-12-10T07:45:18;100944.88;;;2.93;59.86
48527;BME280;34317;51.660;5.824;2022-12-10T07:47:45;100950.13;;;2.93;60.00
48527;BME280;34317;51.660;5.824;2022-12-10T07:50:11;100929.19;;;2.93;60.18
48527;BME280;34317;51.660;5.824;2022-12-10T07:52:38;100934.41;;;2.93;60.07
48527;BME280;34317;51.660;5.824;2022-12-10T07:55:05;100944.88;;;2.93;59.94
48527;BME280;34317;51.660;5.824;2022-12-10T07:57:32;100944.88;;;2.93;60.12
48527;BME280;34317;51.660;5.824;2022-12-10T07:59:59;100945.78;;;2.92;60.18
48527;BME280;34317;51.660;5.824;2022-12-10T08:02:26;100948.34;;;2.96;60.11
48527;BME280;34317;51.660;5.824;2022-12-10T08:04:53;100959.63;;;2.99;60.10
48527;BME280;34317;51.660;5.824;2022-12-10T08:07:20;100964.00;;;3.02;59.99
48527;BME280;34317;51.660;5.824;2022-12-10T08:09:46;100951.75;;;3.04;60.22
48527;BME280;34317;51.660;5.824;2022-12-10T08:12:13;100955.25;;;3.03;60.02
48527;BME280;34317;51.660;5.824;2022-12-10T08:14:40;100956.97;;;3.04;60.19
48527;BME280;34317;51.660;5.824;2022-12-10T08:17:07;100967.44;;;3.04;60.37
48527;BME280;34317;51.660;5.824;2022-12-10T08:19:34;100962.22;;;3.04;60.10
48527;BME280;34317;51.660;5.824;2022-12-10T08:22:01;100976.16;;;3.06;60.27
48527;BME280;34317;51.660;5.824;2022-12-10T08:24:28;100974.38;;;3.08;60.18
48527;BME280;34317;51.660;5.824;2022-12-10T08:26:55;100974.34;;;3.11;60.15
48527;BME280;34317;51.660;5.824;2022-12-10T08:29:21;100983.03;;;3.13;60.25
48527;BME280;34317;51.660;5.824;2022-12-10T08:31:48;100975.13;;;3.16;60.19
48527;BME280;34317;51.660;5.824;2022-12-10T08:34:16;100982.97;;;3.16;60.01
48527;BME280;34317;51.660;5.824;2022-12-10T08:36:45;100991.69;;;3.18;60.12
48527;BME280;34317;51.660;5.824;2022-12-10T08:39:12;100986.41;;;3.21;60.08
48527;BME280;34317;51.660;5.824;2022-12-10T08:41:44;100989.00;;;3.26;60.39
48527;BME280;34317;51.660;5.824;2022-12-10T08:44:11;100997.66;;;3.29;60.23
48527;BME280;34317;51.660;5.824;2022-12-10T08:46:40;100997.63;;;3.31;60.12
48527;BME280;34317;51.660;5.824;2022-12-10T08:49:07;101003.78;;;3.28;59.95
48527;BME280;34317;51.660;5.824;2022-12-10T08:51:34;101002.03;;;3.27;59.95
48527;BME280;34317;51.660;5.824;2022-12-10T08:54:01;101002.97;;;3.25;59.82
48527;BME280;34317;51.660;5.824;2022-12-10T08:56:28;101010.78;;;3.26;60.18
48527;BME280;34317;51.660;5.824;2022-12-10T08:58:55;100997.69;;;3.28;60.01
48527;BME280;34317;51.660;5.824;2022-12-10T09:01:22;100999.41;;;3.29;60.12
48527;BME280;34317;51.660;5.824;2022-12-10T09:03:49;100995.03;;;3.29;60.10
48527;BME280;34317;51.660;5.824;2022-12-10T09:06:18;100994.16;;;3.30;60.27
48527;BME280;34317;51.660;5.824;2022-12-10T09:08:45;100997.66;;;3.29;59.90
48527;BME280;34317;51.660;5.824;2022-12-10T09:11:13;100995.94;;;3.28;60.15
48527;BME280;34317;51.660;5.824;2022-12-10T09:13:40;100999.41;;;3.29;60.16
48527;BME280;34317;51.660;5.824;2022-12-10T09:16:07;101006.38;;;3.30;59.90
48527;BME280;34317;51.660;5.824;2022-12-10T09:18:34;101004.66;;;3.29;60.27
48527;BME280;34317;51.660;5.824;2022-12-10T09:21:05;101005.47;;;3.33;60.17
48527;BME280;34317;51.660;5.824;2022-12-10T09:23:32;101008.09;;;3.34;60.11
48527;BME280;34317;51.660;5.824;2022-12-10T09:26:01;101014.16;;;3.38;60.03
48527;BME280;34317;51.660;5.824;2022-12-10T09:28:28;101011.53;;;3.38;60.21
48527;BME280;34317;51.660;5.824;2022-12-10T09:30:55;101021.09;;;3.39;60.10
48527;BME280;34317;51.660;5.824;2022-12-10T09:33:23;101019.31;;;3.41;60.27
48527;BME280;34317;51.660;5.824;2022-12-10T09:35:50;101021.06;;;3.42;60.06
48527;BME280;34317;51.660;5.824;2022-12-10T09:38:17;101022.81;;;3.43;60.24
48527;BME280;34317;51.660;5.824;2022-12-10T09:41:03;101026.28;;;3.45;60.29
48527;BME280;34317;51.660;5.824;2022-12-10T09:46:11;101034.97;;;3.47;60.00
48527;BME280;34317;51.660;5.824;2022-12-10T09:53:35;101036.78;;;3.42;60.00
48527;BME280;34317;51.660;5.824;2022-12-10T09:56:02;101036.78;;;3.42;59.99
48527;BME280;34317;51.660;5.824;2022-12-10T09:58:30;101036.78;;;3.42;60.10
48527;BME280;34317;51.660;5.824;2022-12-10T10:00:58;101026.31;;;3.42;60.09
48527;BME280;34317;51.660;5.824;2022-12-10T10:03:25;101031.53;;;3.43;60.06
48527;BME280;34317;51.660;5.824;2022-12-10T10:05:53;101035.00;;;3.44;60.23
48527;BME280;34317;51.660;5.824;2022-12-10T10:08:27;101030.63;;;3.44;60.24
48527;BME280;34317;51.660;5.824;2022-12-10T10:10:56;101034.97;;;3.47;60.01
48527;BME280;34317;51.660;5.824;2022-12-10T10:15:52;101040.16;;;3.50;60.17
48527;BME280;34317;51.660;5.824;2022-12-10T10:21:05;101047.13;;;3.51;60.28
48527;BME280;34317;51.660;5.824;2022-12-10T10:23:33;101046.22;;;3.52;60.16
48527;BME280;34317;51.660;5.824;2022-12-10T10:26:01;101043.63;;;3.52;60.34
48527;BME280;34317;51.660;5.824;2022-12-10T10:28:28;101051.44;;;3.55;60.30
48527;BME280;34317;51.660;5.824;2022-12-10T10:30:55;101041.81;;;3.57;60.15
48527;BME280;34317;51.660;5.824;2022-12-10T10:33:22;101040.03;;;3.59;60.05
48527;BME280;34317;51.660;5.824;2022-12-10T10:35:51;101039.19;;;3.59;60.30
48527;BME280;34317;51.660;5.824;2022-12-10T10:38:24;101031.31;;;3.60;60.05
48527;BME280;34317;51.660;5.824;2022-12-10T10:40:57;101034.81;;;3.59;60.30
48527;BME280;34317;51.660;5.824;2022-12-10T10:43:28;101039.16;;;3.62;60.38
48527;BME280;34317;51.660;5.824;2022-12-10T10:48:25;101045.19;;;3.65;60.07
48527;BME280;34317;51.660;5.824;2022-12-10T10:50:54;101043.44;;;3.67;60.30
48527;BME280;34317;51.660;5.824;2022-12-10T10:55:51;101039.91;;;3.72;60.33
48527;BME280;34317;51.660;5.824;2022-12-10T10:58:20;101038.13;;;3.74;60.06
48527;BME280;34317;51.660;5.824;2022-12-10T11:00:55;101040.75;;;3.74;60.18
48527;BME280;34317;51.660;5.824;2022-12-10T11:03:22;101038.13;;;3.74;60.30
48527;BME280;34317;51.660;5.824;2022-12-10T11:05:49;101045.13;;;3.72;60.19
48527;BME280;34317;51.660;5.824;2022-12-10T11:08:17;101041.63;;;3.71;60.19
48527;BME280;34317;51.660;5.824;2022-12-10T11:10:48;101036.44;;;3.69;60.01
48527;BME280;34317;51.660;5.824;2022-12-10T11:13:23;101039.91;;;3.68;59.99
48527;BME280;34317;51.660;5.824;2022-12-10T11:15:54;101033.84;;;3.66;60.18
48527;BME280;34317;51.660;5.824;2022-12-10T11:18:23;101030.38;;;3.64;59.91
48527;BME280;34317;51.660;5.824;2022-12-10T11:23:45;101022.53;;;3.64;60.27
48527;BME280;34317;51.660;5.824;2022-12-10T11:31:45;101029.41;;;3.72;60.24
48527;BME280;34317;51.660;5.824;2022-12-10T11:42:19;101025.84;;;3.76;60.21
48527;BME280;34317;51.660;5.824;2022-12-10T11:44:58;101032.81;;;3.77;59.89
48527;BME280;34317;51.660;5.824;2022-12-10T11:47:31;101031.97;;;3.76;60.19
48527;BME280;34317;51.660;5.824;2022-12-10T11:57:49;101022.19;;;3.89;60.39
48527;BME280;34317;51.660;5.824;2022-12-10T12:00:21;101025.63;;;3.91;60.20
48527;BME280;34317;51.660;5.824;2022-12-10T12:10:35;101027.28;;;3.98;59.93
48527;BME280;34317;51.660;5.824;2022-12-10T12:13:37;101029.00;;;3.99;60.34
48527;BME280;34317;51.660;5.824;2022-12-10T12:21:06;101025.41;;;4.06;60.31
48527;BME280;34317;51.660;5.824;2022-12-10T12:26:10;101024.47;;;4.10;60.30
48527;BME280;34317;51.660;5.824;2022-12-10T12:28:51;101027.09;;;4.10;60.11
48527;BME280;34317;51.660;5.824;2022-12-10T12:31:20;101026.22;;;4.10;60.34
48527;BME280;34317;51.660;5.824;2022-12-10T12:33:53;101017.50;;;4.09;60.18
48527;BME280;34317;51.660;5.824;2022-12-10T12:36:26;101021.91;;;4.07;60.28
48527;BME280;34317;51.660;5.824;2022-12-10T12:39:01;101017.53;;;4.08;60.02
48527;BME280;34317;51.660;5.824;2022-12-10T12:44:17;101020.13;;;4.09;60.28
48527;BME280;34317;51.660;5.824;2022-12-10T12:46:45;101020.97;;;4.12;60.02
48527;BME280;34317;51.660;5.824;2022-12-10T12:49:24;101018.34;;;4.12;60.08
48527;BME280;34317;51.660;5.824;2022-12-10T12:54:19;101014.78;;;4.16;60.28
48527;BME280;34317;51.660;5.824;2022-12-10T12:59:24;101019.97;;;4.19;60.21
48527;BME280;34317;51.660;5.824;2022-12-10T13:02:11;101013.88;;;4.18;60.20
48527;BME280;34317;51.660;5.824;2022-12-10T13:04:41;101028.69;;;4.21;60.16
48527;BME280;34317;51.660;5.824;2022-12-10T13:14:55;101030.47;;;4.19;60.22
48527;BME280;34317;51.660;5.824;2022-12-10T13:17:34;101033.13;;;4.16;60.20
48527;BME280;34317;51.660;5.824;2022-12-10T13:23:00;101023.63;;;4.08;60.27
48527;BME280;34317;51.660;5.824;2022-12-10T13:25:38;101028.88;;;4.08;60.19
48527;BME280;34317;51.660;5.824;2022-12-10T13:41:32;101030.78;;;3.97;60.16
48527;BME280;34317;51.660;5.824;2022-12-10T13:46:54;101028.13;;;4.00;60.18
48527;BME280;34317;51.660;5.824;2022-12-10T13:49:25;101035.97;;;4.00;60.27
48527;BME280;34317;51.660;5.824;2022-12-10T13:51:54;101037.72;;;4.01;60.39
48527;BME280;34317;51.660;5.824;2022-12-10T13:57:25;101035.13;;;4.00;60.06
48527;BME280;34317;51.660;5.824;2022-12-10T14:02:42;101049.97;;;3.99;60.32
48527;BME280;34317;51.660;5.824;2022-12-10T14:07:39;101053.47;;;4.01;60.05
48527;BME280;34317;51.660;5.824;2022-12-10T14:10:12;101058.69;;;4.01;60.33
48527;BME280;34317;51.660;5.824;2022-12-10T14:12:39;101056.94;;;4.00;60.04
48527;BME280;34317;51.660;5.824;2022-12-10T14:15:08;101062.19;;;4.00;60.32
48527;BME280;34317;51.660;5.824;2022-12-10T14:17:41;101058.69;;;4.01;60.13
48527;BME280;34317;51.660;5.824;2022-12-10T14:20:44;101055.16;;;4.02;60.13
48527;BME280;34317;51.660;5.824;2022-12-10T14:23:03;101060.41;;;4.02;60.33
48527;BME280;34317;51.660;5.824;2022-12-10T14:25:50;101060.41;;;4.02;60.35
48527;BME280;34317;51.660;5.824;2022-12-10T14:28:18;101064.78;;;4.03;60.04
48527;BME280;34317;51.660;5.824;2022-12-10T14:30:47;101063.00;;;4.05;60.48
48527;BME280;34317;51.660;5.824;2022-12-10T14:33:15;101064.72;;;4.06;60.27
48527;BME280;34317;51.660;5.824;2022-12-10T14:35:46;101063.84;;;4.07;60.20
48527;BME280;34317;51.660;5.824;2022-12-10T14:38:20;101059.47;;;4.06;60.24
48527;BME280;34317;51.660;5.824;2022-12-10T14:40:47;101051.59;;;4.06;60.10
48527;BME280;34317;51.660;5.824;2022-12-10T14:43:21;101061.19;;;4.09;60.36
48527;BME280;34317;51.660;5.824;2022-12-10T14:45:56;101062.06;;;4.09;60.45
48527;BME280;34317;51.660;5.824;2022-12-10T14:48:24;101067.31;;;4.09;60.17
48527;BME280;34317;51.660;5.824;2022-12-10T14:50:51;101065.56;;;4.08;60.14
48527;BME280;34317;51.660;5.824;2022-12-10T14:53:27;101072.53;;;4.09;60.38
48527;BME280;34317;51.660;5.824;2022-12-10T14:55:56;101069.94;;;4.08;60.04
48527;BME280;34317;51.660;5.824;2022-12-10T15:01:05;101065.63;;;4.05;60.31
48527;BME280;34317;51.660;5.824;2022-12-10T15:03:35;101058.59;;;4.07;60.19
48527;BME280;34317;51.660;5.824;2022-12-10T15:06:06;101064.69;;;4.08;60.32
48527;BME280;34317;51.660;5.824;2022-12-10T15:08:34;101067.31;;;4.09;60.39